createdAt,value
2023-04-22T00:01:47.810Z,16.99
2023-04-22T00:06:05.229Z,17.23
2023-04-22T00:10:22.750Z,17.02
2023-04-22T00:14:40.443Z,16.99
2023-04-22T00:18:59.539Z,17.20
2023-04-22T00:23:17.129Z,16.98
2023-04-22T00:27:34.988Z,16.90
2023-04-22T00:31:52.535Z,17.08
2023-04-22T00:36:10.248Z,16.99
2023-04-22T00:40:27.784Z,16.88
2023-04-22T00:44:46.880Z,17.15
2023-04-22T00:49:05.624Z,16.92
2023-04-22T00:53:23.011Z,16.83
2023-04-22T00:57:41.068Z,17.08
2023-04-22T01:01:58.607Z,16.85
2023-04-22T01:06:19.119Z,16.86
2023-04-22T01:10:36.834Z,17.00
2023-04-22T01:14:54.577Z,16.82
2023-04-22T01:19:12.169Z,16.82
2023-04-22T01:23:30.564Z,17.00
2023-04-22T01:27:47.969Z,16.81
2023-04-22T01:32:06.523Z,17.00
2023-04-22T01:36:24.413Z,16.82
2023-04-22T01:40:41.885Z,16.75
2023-04-22T01:44:59.933Z,16.93
2023-04-22T01:49:17.667Z,16.85
2023-04-22T01:53:36.364Z,16.78
2023-04-22T01:57:53.912Z,16.95
2023-04-22T02:02:11.505Z,16.77
2023-04-22T02:06:28.950Z,16.70
2023-04-22T02:10:46.481Z,16.98
2023-04-22T02:15:04.606Z,16.77
2023-04-22T02:19:23.318Z,16.66
2023-04-22T02:23:41.690Z,16.86
2023-04-22T02:27:59.192Z,16.71
2023-04-22T02:32:17.782Z,16.88
2023-04-22T02:36:35.347Z,16.71
2023-04-22T02:40:53.160Z,16.69
2023-04-22T02:45:11.165Z,16.89
2023-04-22T02:49:28.901Z,16.68
2023-04-22T02:53:46.364Z,16.66
2023-04-22T02:58:04.021Z,16.78
2023-04-22T03:02:21.591Z,16.67
2023-04-22T03:06:39.316Z,16.73
2023-04-22T03:10:56.780Z,16.77
2023-04-22T03:15:14.408Z,16.64
2023-04-22T03:19:31.815Z,16.80
2023-04-22T03:23:49.382Z,16.62
2023-04-22T03:28:06.783Z,16.57
2023-04-22T03:32:24.580Z,16.73
2023-04-22T03:36:42.041Z,16.58
2023-04-22T03:40:59.788Z,16.89
2023-04-22T03:45:17.226Z,16.69
2023-04-22T03:49:35.020Z,16.57
2023-04-22T03:53:52.427Z,16.76
2023-04-22T03:58:10.075Z,16.59
2023-04-22T04:02:27.679Z,16.97
2023-04-22T04:06:45.521Z,16.64
2023-04-22T04:11:02.926Z,16.79
2023-04-22T04:15:21.703Z,16.81
2023-04-22T04:19:39.462Z,16.70
2023-04-22T04:23:57.432Z,16.96
2023-04-22T04:28:14.860Z,16.83
2023-04-22T04:32:34.571Z,16.88
2023-04-22T04:36:52.035Z,16.76
2023-04-22T04:41:10.132Z,16.83
2023-04-22T04:45:27.658Z,16.88
2023-04-22T04:49:46.786Z,16.78
2023-04-22T04:54:04.422Z,16.94
2023-04-22T04:58:21.798Z,16.86
2023-04-22T05:02:39.507Z,16.93
2023-04-22T05:06:57.229Z,16.89
2023-04-22T05:11:14.688Z,17.05
2023-04-22T05:15:32.202Z,16.95
2023-04-22T05:19:49.787Z,16.81
2023-04-22T05:24:07.487Z,16.86
2023-04-22T05:28:25.057Z,16.66
2023-04-22T05:32:42.765Z,16.80
2023-04-22T05:37:00.240Z,16.76
2023-04-22T05:41:17.901Z,16.76
2023-04-22T05:45:35.533Z,16.89
2023-04-22T05:49:53.200Z,16.79
2023-04-22T05:54:10.857Z,16.72
2023-04-22T05:58:28.293Z,16.90
2023-04-22T06:02:46.184Z,16.82
2023-04-22T06:07:04.150Z,16.95
2023-04-22T06:11:22.302Z,17.03
2023-04-22T06:15:39.878Z,17.02
2023-04-22T06:19:57.483Z,17.08
2023-04-22T06:24:14.905Z,17.15
2023-04-22T06:28:32.628Z,17.21
2023-04-22T06:32:55.384Z,17.29
2023-04-22T06:37:13.054Z,17.38
2023-04-22T06:41:31.190Z,17.41
2023-04-22T06:45:50.295Z,17.43
2023-04-22T06:50:09.263Z,17.51
2023-04-22T06:54:26.785Z,17.52
2023-04-22T06:58:44.414Z,17.58
2023-04-22T07:03:04.862Z,17.57
2023-04-22T07:07:22.476Z,17.63
2023-04-22T07:11:39.952Z,17.62
2023-04-22T07:15:57.612Z,17.71
2023-04-22T07:20:15.058Z,17.70
2023-04-22T07:24:32.954Z,17.81
2023-04-22T07:28:50.681Z,17.76
2023-04-22T07:33:08.444Z,17.88
2023-04-22T07:37:26.034Z,17.86
2023-04-22T07:42:25.482Z,17.92
2023-04-22T07:46:43.572Z,18.00
2023-04-22T07:51:01.842Z,18.05
2023-04-22T07:55:19.407Z,18.08
2023-04-22T07:59:37.508Z,18.05
2023-04-22T08:03:55.658Z,18.14
2023-04-22T08:08:13.748Z,18.12
2023-04-22T08:12:31.415Z,17.92
2023-04-22T08:16:49.065Z,18.13
2023-04-22T08:21:07.204Z,17.95
2023-04-22T08:25:24.645Z,17.76
2023-04-22T08:29:42.863Z,18.04
2023-04-22T08:34:00.334Z,18.17
2023-04-22T08:38:18.959Z,18.21
2023-04-22T08:42:37.995Z,18.39
2023-04-22T08:46:56.625Z,18.38
2023-04-22T08:51:17.941Z,18.45
2023-04-22T08:55:36.656Z,18.43
2023-04-22T08:59:57.258Z,18.67
2023-04-22T09:04:15.730Z,18.62
2023-04-22T09:08:35.054Z,18.64
2023-04-22T09:12:53.668Z,18.76
2023-04-22T09:17:12.003Z,18.68
2023-04-22T09:21:33.527Z,18.80
2023-04-22T09:25:51.268Z,18.91
2023-04-22T09:30:10.780Z,18.90
2023-04-22T09:34:28.425Z,18.91
2023-04-22T09:38:54.562Z,18.68
2023-04-22T09:43:12.922Z,18.92
2023-04-22T09:47:37.034Z,18.97
2023-04-22T09:51:58.400Z,19.06
2023-04-22T09:56:16.425Z,18.66
2023-04-22T10:00:38.159Z,18.61
2023-04-22T10:04:56.954Z,18.56
2023-04-22T10:09:19.897Z,18.66
2023-04-22T10:13:37.413Z,18.71
2023-04-22T10:17:56.299Z,18.72
2023-04-22T10:22:14.362Z,18.55
2023-04-22T10:27:03.192Z,18.77
2023-04-22T10:31:24.217Z,18.79
2023-04-22T10:36:02.023Z,18.73
2023-04-22T10:40:23.052Z,18.79
2023-04-22T10:44:53.093Z,18.84
2023-04-22T10:49:13.088Z,19.02
2023-04-22T10:53:37.906Z,19.09
2023-04-22T10:57:55.585Z,19.19
2023-04-22T11:02:16.268Z,19.34
2023-04-22T11:06:33.892Z,20.33
2023-04-22T11:10:52.393Z,23.83
2023-04-22T11:15:12.630Z,24.64
2023-04-22T11:19:30.469Z,25.06
2023-04-22T11:23:53.343Z,25.17
2023-04-22T11:28:11.281Z,25.31
2023-04-22T11:32:30.075Z,25.43
2023-04-22T11:36:47.877Z,25.56
2023-04-22T11:41:05.611Z,25.52
2023-04-22T11:45:24.290Z,25.97
2023-04-22T11:54:00.584Z,25.75
2023-04-22T11:58:25.075Z,26.61
2023-04-22T12:02:44.662Z,26.65
2023-04-22T12:07:04.139Z,27.35
2023-04-22T12:11:22.309Z,27.19
2023-04-22T12:15:43.489Z,27.48
2023-04-22T12:20:01.604Z,28.24
2023-04-22T12:24:22.643Z,27.69
2023-04-22T12:28:41.621Z,27.12
2023-04-22T12:32:59.166Z,26.94
2023-04-22T12:37:18.973Z,27.19
2023-04-22T12:41:36.594Z,27.29
2023-04-22T12:45:54.766Z,27.64
2023-04-22T12:50:12.618Z,27.30
2023-04-22T12:54:30.277Z,27.94
2023-04-22T12:58:48.208Z,27.93
2023-04-22T13:03:05.862Z,27.88
2023-04-22T13:07:23.655Z,28.08
2023-04-22T13:11:41.330Z,27.20
2023-04-22T13:15:59.117Z,21.64
2023-04-22T13:20:17.155Z,26.78
2023-04-22T13:24:34.770Z,27.54
2023-04-22T13:28:52.506Z,27.74
2023-04-22T13:33:10.216Z,20.62
2023-04-22T13:37:27.854Z,21.14
2023-04-22T13:41:46.053Z,20.83
2023-04-22T13:46:03.948Z,20.26
2023-04-22T13:50:22.806Z,22.71
2023-04-22T13:54:40.699Z,25.58
2023-04-22T13:58:58.791Z,25.61
2023-04-22T14:03:16.726Z,25.75
2023-04-22T14:07:34.379Z,25.63
2023-04-22T14:11:52.196Z,22.64
2023-04-22T14:16:11.493Z,22.84
2023-04-22T14:20:29.255Z,21.87
2023-04-22T14:24:46.493Z,24.46
2023-04-22T14:29:04.132Z,24.83
2023-04-22T14:33:25.581Z,22.91
2023-04-22T14:37:45.250Z,23.35
2023-04-22T14:42:04.231Z,21.26
2023-04-22T14:46:22.235Z,20.01
2023-04-22T14:50:40.162Z,19.26
2023-04-22T14:55:00.178Z,19.66
2023-04-22T14:59:22.364Z,19.48
2023-04-22T15:03:40.253Z,19.35
2023-04-22T15:07:58.171Z,19.27
2023-04-22T15:12:15.553Z,19.19
2023-04-22T15:16:35.165Z,19.09
2023-04-22T15:20:52.881Z,18.97
2023-04-22T15:25:11.032Z,18.92
2023-04-22T15:29:28.899Z,18.87
2023-04-22T15:33:46.577Z,18.84
2023-04-22T15:38:06.928Z,18.83
2023-04-22T15:42:26.785Z,18.82
2023-04-22T15:46:46.778Z,18.80
2023-04-22T15:51:04.434Z,18.77
2023-04-22T15:55:22.399Z,18.75
2023-04-22T15:59:42.658Z,18.61
2023-04-22T16:04:08.524Z,18.19
2023-04-22T16:08:26.492Z,18.85
2023-04-22T16:12:47.482Z,18.90
2023-04-22T16:17:06.078Z,18.88
2023-04-22T16:21:30.501Z,18.89
2023-04-22T16:25:50.404Z,18.97
2023-04-22T16:30:09.213Z,18.94
2023-04-22T16:34:28.097Z,18.89
2023-04-22T16:38:45.837Z,18.78
2023-04-22T16:43:06.099Z,18.72
2023-04-22T16:47:27.137Z,18.69
2023-04-22T16:51:44.853Z,18.66
2023-04-22T16:56:02.960Z,18.50
2023-04-22T17:00:21.105Z,18.48
2023-04-22T17:04:38.930Z,18.39
2023-04-22T17:08:56.703Z,18.35
2023-04-22T17:13:16.014Z,18.26
2023-04-22T17:17:33.879Z,18.18
2023-04-22T17:21:51.487Z,18.20
2023-04-22T17:26:09.199Z,18.14
2023-04-22T17:30:26.789Z,18.06
2023-04-22T17:34:44.614Z,18.04
2023-04-22T17:39:02.173Z,18.03
2023-04-22T17:43:20.279Z,17.97
2023-04-22T17:47:37.816Z,17.90
2023-04-22T17:51:56.004Z,18.28
2023-04-22T17:56:13.687Z,18.03
2023-04-22T18:00:36.365Z,17.91
2023-04-22T18:04:54.376Z,17.85
2023-04-22T18:09:12.003Z,17.92
2023-04-22T18:13:29.830Z,17.80
2023-04-22T18:17:47.400Z,17.83
2023-04-22T18:22:05.283Z,17.81
2023-04-22T18:26:23.280Z,17.81
2023-04-22T18:30:40.965Z,17.86
2023-04-22T18:34:59.077Z,17.82
2023-04-22T18:39:16.958Z,17.86
2023-04-22T18:43:34.822Z,17.80
2023-04-22T18:47:53.003Z,17.89
2023-04-22T18:52:11.290Z,17.84
2023-04-22T18:56:30.320Z,17.87
2023-04-22T19:00:48.006Z,17.83
2023-04-22T19:05:06.620Z,17.85
2023-04-22T19:09:24.366Z,17.88
2023-04-22T19:13:43.006Z,17.89
2023-04-22T19:18:02.559Z,17.81
2023-04-22T19:22:21.521Z,17.76
2023-04-22T19:26:39.339Z,17.77
2023-04-22T19:30:57.234Z,17.86
2023-04-22T19:35:16.646Z,17.69
2023-04-22T19:39:34.444Z,17.76
2023-04-22T19:43:52.140Z,17.64
2023-04-22T19:48:11.314Z,17.66
2023-04-22T19:52:30.204Z,17.66
2023-04-22T19:56:52.012Z,17.57
2023-04-22T20:01:10.054Z,17.65
2023-04-22T20:05:28.619Z,17.57
2023-04-22T20:09:46.859Z,17.69
2023-04-22T20:14:14.046Z,17.56
2023-04-22T20:18:31.802Z,17.63
2023-04-22T20:22:53.352Z,17.57
2023-04-22T20:27:11.471Z,17.65
2023-04-22T20:31:29.421Z,17.51
2023-04-22T20:35:49.248Z,17.53
2023-04-22T20:40:10.716Z,17.50
2023-04-22T20:44:28.394Z,17.56
2023-04-22T20:48:46.520Z,17.62
2023-04-22T20:53:07.263Z,17.49
2023-04-22T20:57:28.780Z,17.58
2023-04-22T21:01:47.577Z,17.44
2023-04-22T21:06:06.018Z,17.52
2023-04-22T21:10:24.412Z,17.44
2023-04-22T21:14:43.599Z,17.44
2023-04-22T21:19:03.966Z,17.40
2023-04-22T21:23:24.635Z,17.46
2023-04-22T21:27:42.462Z,17.40
2023-04-22T21:32:08.660Z,17.39
2023-04-22T21:36:27.341Z,17.44
2023-04-22T21:40:46.401Z,17.41
2023-04-22T21:45:04.826Z,17.50
2023-04-22T21:49:23.238Z,17.32
2023-04-22T21:53:41.435Z,17.55
2023-04-22T21:57:59.368Z,17.36
2023-04-22T22:02:16.971Z,17.38
2023-04-22T22:06:34.848Z,17.36
2023-04-22T22:10:52.380Z,17.36
2023-04-22T22:15:11.011Z,17.34
2023-04-22T22:19:30.787Z,17.38
2023-04-22T22:23:48.480Z,17.33
2023-04-22T22:28:06.040Z,17.37
2023-04-22T22:32:23.888Z,17.32
2023-04-22T22:36:41.859Z,17.30
2023-04-22T22:40:59.545Z,17.35
2023-04-22T22:45:19.856Z,17.23
2023-04-22T22:49:38.464Z,17.53
2023-04-22T22:53:56.233Z,17.28
2023-04-22T22:58:17.476Z,17.54
2023-04-22T23:02:36.912Z,17.24
2023-04-22T23:06:56.037Z,17.36
2023-04-22T23:11:13.595Z,17.17
2023-04-22T23:15:31.303Z,17.40
2023-04-22T23:19:52.164Z,17.21
2023-04-22T23:24:11.407Z,17.42
2023-04-22T23:28:29.430Z,17.24
2023-04-22T23:32:52.321Z,17.38
2023-04-22T23:37:13.736Z,17.26
2023-04-22T23:41:32.234Z,17.31
2023-04-22T23:45:49.817Z,17.15
2023-04-22T23:50:09.159Z,17.28
2023-04-22T23:54:27.854Z,17.23
2023-04-22T23:58:46.445Z,17.25
